createdAt,value
2018-09-30T00:00:34.175Z,48.60
2018-09-30T00:05:38.086Z,48.60
2018-09-30T00:10:42.637Z,48.50
2018-09-30T00:15:49.610Z,48.50
2018-09-30T00:20:53.378Z,48.50
2018-09-30T00:26:02.499Z,48.50
2018-09-30T00:31:06.765Z,48.50
2018-09-30T00:36:11.202Z,48.50
2018-09-30T00:41:14.883Z,48.50
2018-09-30T00:46:18.732Z,48.60
2018-09-30T00:51:22.628Z,48.50
2018-09-30T00:56:26.568Z,48.50
2018-09-30T01:01:30.431Z,48.60
2018-09-30T01:06:34.498Z,48.50
2018-09-30T01:11:48.902Z,48.50
2018-09-30T01:16:52.703Z,48.50
2018-09-30T01:22:20.343Z,48.50
2018-09-30T01:38:36.339Z,48.40
2018-09-30T01:43:40.341Z,48.40
2018-09-30T01:48:44.100Z,48.40
2018-09-30T01:53:47.954Z,48.40
2018-09-30T01:58:52.081Z,48.40
2018-09-30T02:03:56.341Z,48.40
2018-09-30T02:09:00.101Z,48.50
2018-09-30T02:14:05.220Z,48.50
2018-09-30T02:19:16.652Z,48.50
2018-09-30T02:24:21.090Z,48.40
2018-09-30T03:02:27.261Z,48.40
2018-09-30T03:07:36.243Z,48.40
2018-09-30T03:12:40.362Z,48.40
2018-09-30T03:17:44.476Z,48.50
2018-09-30T03:22:48.428Z,48.40
2018-09-30T03:27:52.251Z,48.50
2018-09-30T03:32:56.383Z,48.50
2018-09-30T03:38:00.920Z,48.40
2018-09-30T03:43:04.879Z,48.40
2018-09-30T03:48:08.959Z,48.40
2018-09-30T03:53:13.012Z,48.50
2018-09-30T03:58:17.455Z,48.50
2018-09-30T04:03:21.436Z,48.50
2018-09-30T04:14:00.391Z,48.50
2018-09-30T04:19:04.374Z,48.40
2018-09-30T04:24:09.429Z,48.40
2018-09-30T04:29:13.967Z,48.30
2018-09-30T04:34:17.926Z,48.40
2018-09-30T04:39:22.149Z,48.40
2018-09-30T04:44:26.018Z,48.40
2018-09-30T04:49:29.984Z,48.40
2018-09-30T04:54:33.759Z,48.40
2018-09-30T04:59:38.179Z,48.40
2018-09-30T05:04:42.067Z,48.40
2018-09-30T05:09:46.445Z,48.30
2018-09-30T05:14:50.150Z,48.40
2018-09-30T05:19:55.311Z,48.40
2018-09-30T05:24:59.981Z,48.40
2018-09-30T05:30:04.168Z,48.30
2018-09-30T05:35:08.535Z,48.40
2018-09-30T05:40:12.499Z,48.40
2018-09-30T05:45:16.611Z,48.50
2018-09-30T05:50:20.456Z,48.30
2018-09-30T05:55:24.671Z,48.40
2018-09-30T06:00:29.168Z,48.40
2018-09-30T06:05:33.385Z,48.40
2018-09-30T06:10:37.507Z,48.40
2018-09-30T06:15:41.208Z,48.50
2018-09-30T06:20:44.840Z,48.40
2018-09-30T06:25:48.707Z,48.40
2018-09-30T06:30:53.064Z,48.50
2018-09-30T06:35:57.280Z,48.50
2018-09-30T06:41:01.441Z,48.40
2018-09-30T06:46:05.168Z,48.50
2018-09-30T06:51:08.987Z,48.50
2018-09-30T06:56:12.814Z,48.50
2018-09-30T07:01:16.835Z,48.60
2018-09-30T07:06:20.409Z,48.70
2018-09-30T07:11:24.169Z,48.60
2018-09-30T07:16:27.916Z,48.70
2018-09-30T07:21:32.296Z,48.80
2018-09-30T07:26:36.164Z,48.90
2018-09-30T07:31:40.638Z,49.00
2018-09-30T07:36:44.457Z,49.00
2018-09-30T07:41:48.193Z,49.20
2018-09-30T07:46:52.216Z,49.20
2018-09-30T07:51:56.242Z,49.30
2018-09-30T07:57:00.177Z,49.40
2018-09-30T08:02:04.442Z,49.60
2018-09-30T08:07:08.267Z,49.60
2018-09-30T08:12:11.993Z,49.70
2018-09-30T08:17:15.953Z,49.80
2018-09-30T08:22:19.983Z,49.90
2018-09-30T08:27:23.915Z,50.00
2018-09-30T08:32:28.005Z,50.00
2018-09-30T08:37:37.282Z,50.00
2018-09-30T08:42:41.161Z,49.80
2018-09-30T08:47:45.163Z,48.90
2018-09-30T08:52:49.376Z,48.90
2018-09-30T08:57:53.516Z,48.90
2018-09-30T09:02:57.167Z,48.90
2018-09-30T09:08:01.171Z,48.90
2018-09-30T09:13:05.716Z,49.00
2018-09-30T09:18:10.252Z,49.10
2018-09-30T09:23:14.388Z,49.10
2018-09-30T09:28:18.778Z,49.10
2018-09-30T09:33:22.775Z,49.00
2018-09-30T09:38:26.492Z,48.90
2018-09-30T09:43:31.291Z,48.80
2018-09-30T09:48:35.500Z,48.80
2018-09-30T09:53:39.254Z,48.80
2018-09-30T09:58:43.439Z,48.80
2018-09-30T10:03:47.196Z,48.90
2018-09-30T10:08:51.732Z,48.70
2018-09-30T10:13:56.223Z,48.70
2018-09-30T10:19:00.468Z,48.70
2018-09-30T10:24:04.219Z,48.70
2018-09-30T10:29:08.055Z,48.70
2018-09-30T10:34:11.867Z,48.70
2018-09-30T10:39:17.464Z,48.60
2018-09-30T10:44:21.273Z,48.60
2018-09-30T10:49:25.407Z,48.50
2018-09-30T10:54:29.076Z,48.50
2018-09-30T10:59:32.845Z,48.50
2018-09-30T11:04:37.256Z,48.40
2018-09-30T11:09:41.007Z,48.40
2018-09-30T11:14:45.287Z,48.60
2018-09-30T11:19:49.687Z,48.30
2018-09-30T11:24:53.336Z,48.30
2018-09-30T11:29:57.550Z,48.30
2018-09-30T11:35:01.299Z,48.30
2018-09-30T11:40:05.316Z,48.30
2018-09-30T11:45:09.192Z,48.20
2018-09-30T11:50:13.108Z,48.10
2018-09-30T11:55:16.864Z,48.20
2018-09-30T12:00:20.843Z,48.00
2018-09-30T12:05:24.772Z,47.80
2018-09-30T12:10:28.934Z,47.80
2018-09-30T12:15:33.201Z,47.70
2018-09-30T12:20:37.038Z,47.70
2018-09-30T12:25:40.676Z,47.70
2018-09-30T12:30:44.411Z,47.50
2018-09-30T12:35:48.320Z,47.50
2018-09-30T12:40:52.188Z,47.50
2018-09-30T12:45:56.330Z,47.20
2018-09-30T12:51:00.374Z,47.20
2018-09-30T12:56:04.280Z,47.10
2018-09-30T13:01:08.306Z,47.20
2018-09-30T13:06:12.132Z,47.10
2018-09-30T13:11:15.831Z,46.90
2018-09-30T13:16:19.616Z,46.90
2018-09-30T13:21:23.527Z,46.90
2018-09-30T13:26:27.281Z,46.90
2018-09-30T13:31:31.364Z,46.80
2018-09-30T13:36:35.170Z,46.60
2018-09-30T13:41:39.963Z,46.30
2018-09-30T13:46:43.828Z,46.40
2018-09-30T13:51:47.611Z,46.30
2018-09-30T13:56:51.370Z,46.30
2018-09-30T14:07:28.172Z,46.10
2018-09-30T14:12:32.088Z,46.20
2018-09-30T14:17:35.873Z,46.00
2018-09-30T14:22:39.668Z,45.90
2018-09-30T14:27:43.440Z,46.00
2018-09-30T14:32:47.237Z,45.90
2018-09-30T14:37:52.846Z,46.00
2018-09-30T14:42:56.698Z,46.00
2018-09-30T14:48:00.399Z,46.00
2018-09-30T14:53:04.286Z,46.00
2018-09-30T14:58:07.927Z,46.70
2018-09-30T15:03:11.527Z,46.00
2018-09-30T15:08:15.535Z,46.00
2018-09-30T15:13:19.631Z,45.80
2018-09-30T15:18:23.341Z,46.00
2018-09-30T15:23:27.277Z,45.90
2018-09-30T15:28:31.433Z,45.80
2018-09-30T15:33:35.091Z,45.80
2018-09-30T15:38:39.214Z,45.80
2018-09-30T15:43:43.493Z,45.90
2018-09-30T15:48:47.325Z,46.00
2018-09-30T15:53:51.253Z,45.90
2018-09-30T15:58:55.193Z,45.90
2018-09-30T16:03:58.962Z,45.90
2018-09-30T16:09:02.867Z,45.80
2018-09-30T16:14:06.928Z,45.70
2018-09-30T16:19:26.456Z,45.60
2018-09-30T16:24:30.412Z,45.90
2018-09-30T16:29:34.645Z,46.00
2018-09-30T16:34:38.530Z,46.10
2018-09-30T16:39:42.606Z,46.40
2018-09-30T16:44:46.292Z,46.30
2018-09-30T16:49:50.163Z,46.50
2018-09-30T16:54:54.018Z,46.70
2018-09-30T16:59:57.894Z,46.70
2018-09-30T17:05:01.936Z,46.90
2018-09-30T17:10:06.196Z,46.90
2018-09-30T17:15:09.809Z,46.90
2018-09-30T17:20:13.510Z,46.90
2018-09-30T17:25:17.837Z,47.00
2018-09-30T17:30:22.058Z,46.90
2018-09-30T17:35:25.789Z,47.00
2018-09-30T17:40:30.003Z,47.00
2018-09-30T17:45:33.561Z,47.00
2018-09-30T17:50:37.838Z,47.10
2018-09-30T17:55:41.513Z,47.10
2018-09-30T18:00:45.190Z,47.20
2018-09-30T18:05:49.063Z,47.30
2018-09-30T18:10:53.123Z,47.20
2018-09-30T18:15:56.964Z,47.20
2018-09-30T18:21:00.808Z,47.20
2018-09-30T18:26:04.516Z,47.30
2018-09-30T18:31:08.548Z,47.30
2018-09-30T18:36:12.399Z,47.30
2018-09-30T18:41:16.686Z,47.90
2018-09-30T18:46:20.961Z,47.30
2018-09-30T18:51:24.804Z,47.30
2018-09-30T18:56:28.652Z,47.30
2018-09-30T19:01:32.640Z,47.30
2018-09-30T19:06:36.432Z,47.30
2018-09-30T19:11:40.101Z,47.30
2018-09-30T19:16:44.202Z,47.40
2018-09-30T19:21:48.217Z,47.70
2018-09-30T19:26:52.607Z,47.30
2018-09-30T19:31:56.441Z,47.40
2018-09-30T19:37:00.096Z,47.50
2018-09-30T19:42:04.000Z,47.50
2018-09-30T19:47:10.038Z,47.60
2018-09-30T19:52:14.116Z,47.60
2018-09-30T19:57:18.013Z,47.60
2018-09-30T20:02:21.839Z,47.70
2018-09-30T20:07:25.928Z,47.70
2018-09-30T20:12:30.224Z,47.70
2018-09-30T20:17:34.264Z,47.70
2018-09-30T20:22:38.376Z,47.70
2018-09-30T20:27:42.436Z,47.70
2018-09-30T20:32:46.752Z,47.80
2018-09-30T20:37:56.233Z,47.80
2018-09-30T20:42:59.983Z,47.90
2018-09-30T20:48:04.029Z,47.80
2018-09-30T20:53:07.833Z,47.90
2018-09-30T20:58:11.627Z,47.90
2018-09-30T21:03:16.097Z,47.90
2018-09-30T21:08:19.991Z,47.90
2018-09-30T21:13:23.821Z,47.90
2018-09-30T21:18:28.063Z,47.90
2018-09-30T21:23:32.201Z,47.90
2018-09-30T21:28:36.164Z,48.00
2018-09-30T21:33:39.996Z,48.00
2018-09-30T21:38:57.181Z,48.10
2018-09-30T21:44:01.011Z,48.10
2018-09-30T21:49:04.735Z,48.10
2018-09-30T21:54:08.676Z,48.10
2018-09-30T21:59:12.371Z,48.20
2018-09-30T22:04:16.345Z,48.20
2018-09-30T22:09:21.390Z,48.30
2018-09-30T22:14:32.300Z,48.20
2018-09-30T22:19:36.035Z,48.30
2018-09-30T22:24:39.713Z,48.40
2018-09-30T22:29:43.698Z,48.40
2018-09-30T22:34:47.401Z,48.60
2018-09-30T22:39:51.455Z,48.50
2018-09-30T22:44:55.511Z,48.60
2018-09-30T22:49:59.223Z,48.70
2018-09-30T22:55:03.365Z,48.70
2018-09-30T23:00:07.715Z,48.80
2018-09-30T23:05:11.704Z,48.70
2018-09-30T23:10:15.919Z,48.70
2018-09-30T23:15:19.704Z,48.80
2018-09-30T23:20:23.346Z,48.80
2018-09-30T23:25:27.095Z,49.50
2018-09-30T23:30:30.796Z,48.90
2018-09-30T23:35:34.605Z,49.00
2018-09-30T23:40:38.238Z,49.00
2018-09-30T23:45:42.053Z,49.00
2018-09-30T23:50:45.764Z,49.10
2018-09-30T23:55:49.806Z,49.00
